sensor_id;sensor_type;location;lat;lon;timestamp;P1;durP1;ratioP1;P2;durP2;ratioP2
253;SDS011;590;48.772;8.846;2022-09-12T00:01:03;6.60;;;6.20;;
253;SDS011;590;48.772;8.846;2022-09-12T00:03:32;6.87;;;6.47;;
253;SDS011;590;48.772;8.846;2022-09-12T00:06:00;6.80;;;6.40;;
253;SDS011;590;48.772;8.846;2022-09-12T00:08:33;7.40;;;7.00;;
253;SDS011;590;48.772;8.846;2022-09-12T00:11:03;7.17;;;6.77;;
253;SDS011;590;48.772;8.846;2022-09-12T00:13:33;7.33;;;6.93;;
253;SDS011;590;48.772;8.846;2022-09-12T00:16:09;7.40;;;6.87;;
253;SDS011;590;48.772;8.846;2022-09-12T00:18:42;7.30;;;6.67;;
253;SDS011;590;48.772;8.846;2022-09-12T00:21:12;8.13;;;7.73;;
253;SDS011;590;48.772;8.846;2022-09-12T00:23:40;6.77;;;6.37;;
253;SDS011;590;48.772;8.846;2022-09-12T00:26:08;8.13;;;7.73;;
253;SDS011;590;48.772;8.846;2022-09-12T00:28:37;7.50;;;7.10;;
253;SDS011;590;48.772;8.846;2022-09-12T00:31:08;8.80;;;8.30;;
253;SDS011;590;48.772;8.846;2022-09-12T00:33:38;7.77;;;7.37;;
253;SDS011;590;48.772;8.846;2022-09-12T00:36:07;8.00;;;7.60;;
253;SDS011;590;48.772;8.846;2022-09-12T00:38:37;7.80;;;7.40;;
253;SDS011;590;48.772;8.846;2022-09-12T00:41:09;6.97;;;6.57;;
253;SDS011;590;48.772;8.846;2022-09-12T00:43:42;6.77;;;6.37;;
253;SDS011;590;48.772;8.846;2022-09-12T00:46:15;6.97;;;6.57;;
253;SDS011;590;48.772;8.846;2022-09-12T00:49:00;7.50;;;7.10;;
253;SDS011;590;48.772;8.846;2022-09-12T00:51:32;7.50;;;7.10;;
253;SDS011;590;48.772;8.846;2022-09-12T00:54:04;7.00;;;6.60;;
253;SDS011;590;48.772;8.846;2022-09-12T00:56:35;7.87;;;6.90;;
253;SDS011;590;48.772;8.846;2022-09-12T00:59:05;6.80;;;6.40;;
253;SDS011;590;48.772;8.846;2022-09-12T01:01:39;5.73;;;5.43;;
253;SDS011;590;48.772;8.846;2022-09-12T01:04:09;6.20;;;5.90;;
253;SDS011;590;48.772;8.846;2022-09-12T01:06:39;6.27;;;5.93;;
253;SDS011;590;48.772;8.846;2022-09-12T01:09:08;6.13;;;5.83;;
253;SDS011;590;48.772;8.846;2022-09-12T01:11:40;6.53;;;6.13;;
253;SDS011;590;48.772;8.846;2022-09-12T01:14:11;7.90;;;7.50;;
253;SDS011;590;48.772;8.846;2022-09-12T01:16:41;8.90;;;6.80;;
253;SDS011;590;48.772;8.846;2022-09-12T01:19:15;7.60;;;7.20;;
253;SDS011;590;48.772;8.846;2022-09-12T01:22:33;7.00;;;6.60;;
253;SDS011;590;48.772;8.846;2022-09-12T01:25:12;6.93;;;6.53;;
253;SDS011;590;48.772;8.846;2022-09-12T01:27:54;7.77;;;7.37;;
253;SDS011;590;48.772;8.846;2022-09-12T01:30:49;7.53;;;7.13;;
253;SDS011;590;48.772;8.846;2022-09-12T01:33:33;8.23;;;7.77;;
253;SDS011;590;48.772;8.846;2022-09-12T01:36:15;6.50;;;6.10;;
253;SDS011;590;48.772;8.846;2022-09-12T01:38:55;6.73;;;5.70;;
253;SDS011;590;48.772;8.846;2022-09-12T01:41:27;5.90;;;5.60;;
253;SDS011;590;48.772;8.846;2022-09-12T01:44:01;6.40;;;6.00;;
253;SDS011;590;48.772;8.846;2022-09-12T01:46:38;6.70;;;6.30;;
253;SDS011;590;48.772;8.846;2022-09-12T01:49:12;5.87;;;5.57;;
253;SDS011;590;48.772;8.846;2022-09-12T01:51:47;5.90;;;5.60;;
253;SDS011;590;48.772;8.846;2022-09-12T01:54:24;8.47;;;7.30;;
253;SDS011;590;48.772;8.846;2022-09-12T01:56:57;6.77;;;6.37;;
253;SDS011;590;48.772;8.846;2022-09-12T01:59:29;6.97;;;6.57;;
253;SDS011;590;48.772;8.846;2022-09-12T02:02:03;7.13;;;6.67;;
253;SDS011;590;48.772;8.846;2022-09-12T02:04:35;7.17;;;6.77;;
253;SDS011;590;48.772;8.846;2022-09-12T02:07:15;7.70;;;7.30;;
253;SDS011;590;48.772;8.846;2022-09-12T02:09:47;7.50;;;7.10;;
253;SDS011;590;48.772;8.846;2022-09-12T02:12:20;7.93;;;7.53;;
253;SDS011;590;48.772;8.846;2022-09-12T02:14:52;7.07;;;6.67;;
253;SDS011;590;48.772;8.846;2022-09-12T02:17:27;7.83;;;7.43;;
253;SDS011;590;48.772;8.846;2022-09-12T02:19:58;7.23;;;6.83;;
253;SDS011;590;48.772;8.846;2022-09-12T02:22:31;7.03;;;6.63;;
253;SDS011;590;48.772;8.846;2022-09-12T02:25:03;6.10;;;5.80;;
253;SDS011;590;48.772;8.846;2022-09-12T02:27:36;5.90;;;5.60;;
253;SDS011;590;48.772;8.846;2022-09-12T02:30:07;6.03;;;5.73;;
253;SDS011;590;48.772;8.846;2022-09-12T02:32:40;6.90;;;6.50;;
253;SDS011;590;48.772;8.846;2022-09-12T02:35:15;5.97;;;5.70;;
253;SDS011;590;48.772;8.846;2022-09-12T02:37:53;6.67;;;6.27;;
253;SDS011;590;48.772;8.846;2022-09-12T02:40:26;6.60;;;6.20;;
253;SDS011;590;48.772;8.846;2022-09-12T02:42:54;6.40;;;6.00;;
253;SDS011;590;48.772;8.846;2022-09-12T02:45:23;8.20;;;6.30;;
253;SDS011;590;48.772;8.846;2022-09-12T02:47:54;7.23;;;6.83;;
253;SDS011;590;48.772;8.846;2022-09-12T02:50:25;7.60;;;7.20;;
253;SDS011;590;48.772;8.846;2022-09-12T02:52:54;8.20;;;7.80;;
253;SDS011;590;48.772;8.846;2022-09-12T02:55:25;6.47;;;6.10;;
253;SDS011;590;48.772;8.846;2022-09-12T02:57:55;8.10;;;7.70;;
253;SDS011;590;48.772;8.846;2022-09-12T03:00:23;8.30;;;6.93;;
253;SDS011;590;48.772;8.846;2022-09-12T03:02:57;6.70;;;6.30;;
253;SDS011;590;48.772;8.846;2022-09-12T03:05:36;7.33;;;6.93;;
253;SDS011;590;48.772;8.846;2022-09-12T03:08:15;7.03;;;6.63;;
253;SDS011;590;48.772;8.846;2022-09-12T03:11:11;6.10;;;5.80;;
253;SDS011;590;48.772;8.846;2022-09-12T03:13:51;6.37;;;6.00;;
253;SDS011;590;48.772;8.846;2022-09-12T03:16:26;8.07;;;7.70;;
253;SDS011;590;48.772;8.846;2022-09-12T03:19:05;7.30;;;6.90;;
253;SDS011;590;48.772;8.846;2022-09-12T03:21:39;7.03;;;6.63;;
253;SDS011;590;48.772;8.846;2022-09-12T03:24:17;7.60;;;7.20;;
253;SDS011;590;48.772;8.846;2022-09-12T03:26:53;7.73;;;7.33;;
253;SDS011;590;48.772;8.846;2022-09-12T03:29:24;7.30;;;6.90;;
253;SDS011;590;48.772;8.846;2022-09-12T03:31:54;8.80;;;8.20;;
253;SDS011;590;48.772;8.846;2022-09-12T03:34:24;8.87;;;8.33;;
253;SDS011;590;48.772;8.846;2022-09-12T03:36:54;7.27;;;6.87;;
253;SDS011;590;48.772;8.846;2022-09-12T03:39:22;7.27;;;6.87;;
253;SDS011;590;48.772;8.846;2022-09-12T03:41:52;6.80;;;6.10;;
253;SDS011;590;48.772;8.846;2022-09-12T03:44:20;5.83;;;5.53;;
253;SDS011;590;48.772;8.846;2022-09-12T03:46:49;5.97;;;5.67;;
253;SDS011;590;48.772;8.846;2022-09-12T03:49:17;5.50;;;5.20;;
253;SDS011;590;48.772;8.846;2022-09-12T03:51:46;5.93;;;5.63;;
253;SDS011;590;48.772;8.846;2022-09-12T03:54:14;5.20;;;4.90;;
253;SDS011;590;48.772;8.846;2022-09-12T03:56:42;5.87;;;5.57;;
253;SDS011;590;48.772;8.846;2022-09-12T03:59:10;7.00;;;6.57;;
253;SDS011;590;48.772;8.846;2022-09-12T04:01:38;6.90;;;6.50;;
253;SDS011;590;48.772;8.846;2022-09-12T04:04:07;7.13;;;6.73;;
253;SDS011;590;48.772;8.846;2022-09-12T04:06:35;7.50;;;7.10;;
253;SDS011;590;48.772;8.846;2022-09-12T04:09:04;8.20;;;7.53;;
253;SDS011;590;48.772;8.846;2022-09-12T04:11:32;7.20;;;6.80;;
253;SDS011;590;48.772;8.846;2022-09-12T04:14:01;8.23;;;7.87;;
253;SDS011;590;48.772;8.846;2022-09-12T04:16:29;8.13;;;7.73;;
253;SDS011;590;48.772;8.846;2022-09-12T04:18:57;7.83;;;7.43;;
253;SDS011;590;48.772;8.846;2022-09-12T04:21:25;7.30;;;6.90;;
253;SDS011;590;48.772;8.846;2022-09-12T04:23:53;7.10;;;6.70;;
253;SDS011;590;48.772;8.846;2022-09-12T04:26:23;7.60;;;7.20;;
253;SDS011;590;48.772;8.846;2022-09-12T04:28:52;7.60;;;7.20;;
253;SDS011;590;48.772;8.846;2022-09-12T04:31:23;7.30;;;6.77;;
253;SDS011;590;48.772;8.846;2022-09-12T04:33:54;6.70;;;6.30;;
253;SDS011;590;48.772;8.846;2022-09-12T04:36:23;7.20;;;6.80;;
253;SDS011;590;48.772;8.846;2022-09-12T04:38:52;6.03;;;5.73;;
253;SDS011;590;48.772;8.846;2022-09-12T04:41:22;6.90;;;6.50;;
253;SDS011;590;48.772;8.846;2022-09-12T04:43:52;7.67;;;7.27;;
253;SDS011;590;48.772;8.846;2022-09-12T04:46:24;5.73;;;5.43;;
253;SDS011;590;48.772;8.846;2022-09-12T04:48:52;7.77;;;7.37;;
253;SDS011;590;48.772;8.846;2022-09-12T04:51:23;6.90;;;6.50;;
253;SDS011;590;48.772;8.846;2022-09-12T04:53:54;7.10;;;6.70;;
253;SDS011;590;48.772;8.846;2022-09-12T04:56:24;5.93;;;5.63;;
253;SDS011;590;48.772;8.846;2022-09-12T04:58:55;5.97;;;5.67;;
253;SDS011;590;48.772;8.846;2022-09-12T05:01:24;6.43;;;6.03;;
253;SDS011;590;48.772;8.846;2022-09-12T05:03:54;6.03;;;5.73;;
253;SDS011;590;48.772;8.846;2022-09-12T05:06:23;7.17;;;6.77;;
253;SDS011;590;48.772;8.846;2022-09-12T05:08:53;6.43;;;6.03;;
253;SDS011;590;48.772;8.846;2022-09-12T05:11:23;7.30;;;6.90;;
253;SDS011;590;48.772;8.846;2022-09-12T05:14:14;6.53;;;6.13;;
253;SDS011;590;48.772;8.846;2022-09-12T05:16:42;8.27;;;7.47;;
253;SDS011;590;48.772;8.846;2022-09-12T05:19:15;10.30;;;9.80;;
253;SDS011;590;48.772;8.846;2022-09-12T05:21:43;9.00;;;8.50;;
253;SDS011;590;48.772;8.846;2022-09-12T05:24:11;9.53;;;9.03;;
253;SDS011;590;48.772;8.846;2022-09-12T05:26:40;8.63;;;8.13;;
253;SDS011;590;48.772;8.846;2022-09-12T05:29:08;8.60;;;8.10;;
253;SDS011;590;48.772;8.846;2022-09-12T05:31:38;7.40;;;7.00;;
253;SDS011;590;48.772;8.846;2022-09-12T05:34:06;8.80;;;8.30;;
253;SDS011;590;48.772;8.846;2022-09-12T05:36:35;7.77;;;7.37;;
253;SDS011;590;48.772;8.846;2022-09-12T05:39:03;8.07;;;7.70;;
253;SDS011;590;48.772;8.846;2022-09-12T05:41:32;7.53;;;7.13;;
253;SDS011;590;48.772;8.846;2022-09-12T05:44:03;9.13;;;8.63;;
253;SDS011;590;48.772;8.846;2022-09-12T05:46:34;7.83;;;7.43;;
253;SDS011;590;48.772;8.846;2022-09-12T05:49:04;7.10;;;6.70;;
253;SDS011;590;48.772;8.846;2022-09-12T05:51:35;6.77;;;6.37;;
253;SDS011;590;48.772;8.846;2022-09-12T05:54:05;12.20;;;7.03;;
253;SDS011;590;48.772;8.846;2022-09-12T05:56:36;7.37;;;6.97;;
253;SDS011;590;48.772;8.846;2022-09-12T05:59:08;6.90;;;6.50;;
253;SDS011;590;48.772;8.846;2022-09-12T06:01:38;8.03;;;7.63;;
253;SDS011;590;48.772;8.846;2022-09-12T06:04:06;7.50;;;7.10;;
253;SDS011;590;48.772;8.846;2022-09-12T06:06:35;7.60;;;7.20;;
253;SDS011;590;48.772;8.846;2022-09-12T06:09:04;7.83;;;7.43;;
253;SDS011;590;48.772;8.846;2022-09-12T06:11:34;7.57;;;7.17;;
253;SDS011;590;48.772;8.846;2022-09-12T06:14:03;7.90;;;7.50;;
253;SDS011;590;48.772;8.846;2022-09-12T06:16:32;8.57;;;8.07;;
253;SDS011;590;48.772;8.846;2022-09-12T06:19:03;7.70;;;7.30;;
253;SDS011;590;48.772;8.846;2022-09-12T06:21:33;8.47;;;8.00;;
253;SDS011;590;48.772;8.846;2022-09-12T06:24:03;8.17;;;7.77;;
253;SDS011;590;48.772;8.846;2022-09-12T06:26:32;8.07;;;7.67;;
253;SDS011;590;48.772;8.846;2022-09-12T06:29:00;6.73;;;6.33;;
253;SDS011;590;48.772;8.846;2022-09-12T06:31:29;7.90;;;7.50;;
253;SDS011;590;48.772;8.846;2022-09-12T06:34:01;7.87;;;7.47;;
253;SDS011;590;48.772;8.846;2022-09-12T06:36:30;7.60;;;7.20;;
253;SDS011;590;48.772;8.846;2022-09-12T06:39:00;6.70;;;6.30;;
253;SDS011;590;48.772;8.846;2022-09-12T06:41:30;7.03;;;6.63;;
253;SDS011;590;48.772;8.846;2022-09-12T06:43:58;7.93;;;7.53;;
253;SDS011;590;48.772;8.846;2022-09-12T06:46:27;7.50;;;7.10;;
253;SDS011;590;48.772;8.846;2022-09-12T06:48:56;7.53;;;7.17;;
253;SDS011;590;48.772;8.846;2022-09-12T06:51:27;7.20;;;6.80;;
253;SDS011;590;48.772;8.846;2022-09-12T06:53:55;6.73;;;6.33;;
253;SDS011;590;48.772;8.846;2022-09-12T06:56:25;7.70;;;7.30;;
253;SDS011;590;48.772;8.846;2022-09-12T06:58:54;7.00;;;6.60;;
253;SDS011;590;48.772;8.846;2022-09-12T07:01:24;7.27;;;6.87;;
253;SDS011;590;48.772;8.846;2022-09-12T07:03:53;6.97;;;6.57;;
253;SDS011;590;48.772;8.846;2022-09-12T07:06:24;7.80;;;7.40;;
253;SDS011;590;48.772;8.846;2022-09-12T07:08:57;6.00;;;5.70;;
253;SDS011;590;48.772;8.846;2022-09-12T07:11:27;7.20;;;6.80;;
253;SDS011;590;48.772;8.846;2022-09-12T07:13:57;6.40;;;6.00;;
253;SDS011;590;48.772;8.846;2022-09-12T07:16:26;7.20;;;6.80;;
253;SDS011;590;48.772;8.846;2022-09-12T07:18:56;5.93;;;5.63;;
253;SDS011;590;48.772;8.846;2022-09-12T07:21:27;6.60;;;6.20;;
253;SDS011;590;48.772;8.846;2022-09-12T07:23:56;7.10;;;6.70;;
253;SDS011;590;48.772;8.846;2022-09-12T07:26:25;7.50;;;7.10;;
253;SDS011;590;48.772;8.846;2022-09-12T07:28:54;7.33;;;6.93;;
253;SDS011;590;48.772;8.846;2022-09-12T07:31:43;6.50;;;6.10;;
253;SDS011;590;48.772;8.846;2022-09-12T07:34:11;6.10;;;5.80;;
253;SDS011;590;48.772;8.846;2022-09-12T07:36:41;7.10;;;6.70;;
253;SDS011;590;48.772;8.846;2022-09-12T07:39:09;5.60;;;5.30;;
253;SDS011;590;48.772;8.846;2022-09-12T07:41:37;6.77;;;6.37;;
253;SDS011;590;48.772;8.846;2022-09-12T07:44:05;6.33;;;5.97;;
253;SDS011;590;48.772;8.846;2022-09-12T07:46:33;5.80;;;5.50;;
253;SDS011;590;48.772;8.846;2022-09-12T07:49:01;6.70;;;6.30;;
253;SDS011;590;48.772;8.846;2022-09-12T07:51:30;6.80;;;6.40;;
253;SDS011;590;48.772;8.846;2022-09-12T07:53:59;6.00;;;5.70;;
253;SDS011;590;48.772;8.846;2022-09-12T07:56:27;5.70;;;5.40;;
253;SDS011;590;48.772;8.846;2022-09-12T07:59:02;5.93;;;5.63;;
253;SDS011;590;48.772;8.846;2022-09-12T08:01:30;6.40;;;6.00;;
253;SDS011;590;48.772;8.846;2022-09-12T08:03:58;6.17;;;5.87;;
253;SDS011;590;48.772;8.846;2022-09-12T08:06:27;4.93;;;4.63;;
253;SDS011;590;48.772;8.846;2022-09-12T08:08:57;6.00;;;5.70;;
253;SDS011;590;48.772;8.846;2022-09-12T08:11:28;4.50;;;4.20;;
253;SDS011;590;48.772;8.846;2022-09-12T08:13:56;4.40;;;4.10;;
253;SDS011;590;48.772;8.846;2022-09-12T08:16:26;4.53;;;4.23;;
253;SDS011;590;48.772;8.846;2022-09-12T08:18:56;4.70;;;4.40;;
253;SDS011;590;48.772;8.846;2022-09-12T08:21:27;4.77;;;4.47;;
253;SDS011;590;48.772;8.846;2022-09-12T08:23:56;4.30;;;4.00;;
253;SDS011;590;48.772;8.846;2022-09-12T08:26:27;4.00;;;3.80;;
253;SDS011;590;48.772;8.846;2022-09-12T08:28:56;4.07;;;3.87;;
253;SDS011;590;48.772;8.846;2022-09-12T08:31:25;3.43;;;3.23;;
253;SDS011;590;48.772;8.846;2022-09-12T08:33:54;3.73;;;3.53;;
253;SDS011;590;48.772;8.846;2022-09-12T08:36:23;4.60;;;4.30;;
253;SDS011;590;48.772;8.846;2022-09-12T08:38:53;4.57;;;4.27;;
253;SDS011;590;48.772;8.846;2022-09-12T08:41:29;4.33;;;4.03;;
253;SDS011;590;48.772;8.846;2022-09-12T08:47:10;3.70;;;3.50;;
253;SDS011;590;48.772;8.846;2022-09-12T08:49:46;3.37;;;3.17;;
253;SDS011;590;48.772;8.846;2022-09-12T08:52:20;3.30;;;3.10;;
253;SDS011;590;48.772;8.846;2022-09-12T08:54:52;3.90;;;3.70;;
253;SDS011;590;48.772;8.846;2022-09-12T08:57:23;3.17;;;2.97;;
253;SDS011;590;48.772;8.846;2022-09-12T08:59:51;3.17;;;2.97;;
253;SDS011;590;48.772;8.846;2022-09-12T09:02:23;3.70;;;3.50;;
253;SDS011;590;48.772;8.846;2022-09-12T09:05:16;3.40;;;3.20;;
253;SDS011;590;48.772;8.846;2022-09-12T09:07:53;3.43;;;3.23;;
253;SDS011;590;48.772;8.846;2022-09-12T09:10:41;2.93;;;2.73;;
253;SDS011;590;48.772;8.846;2022-09-12T09:13:24;3.07;;;2.87;;
253;SDS011;590;48.772;8.846;2022-09-12T09:16:18;3.27;;;3.07;;
253;SDS011;590;48.772;8.846;2022-09-12T09:18:51;2.93;;;2.73;;
253;SDS011;590;48.772;8.846;2022-09-12T09:21:22;2.63;;;2.43;;
253;SDS011;590;48.772;8.846;2022-09-12T09:23:56;2.70;;;2.50;;
253;SDS011;590;48.772;8.846;2022-09-12T09:26:29;2.53;;;2.20;;
253;SDS011;590;48.772;8.846;2022-09-12T09:29:12;2.40;;;2.20;;
253;SDS011;590;48.772;8.846;2022-09-12T09:31:45;2.47;;;2.27;;
253;SDS011;590;48.772;8.846;2022-09-12T09:34:17;2.50;;;2.30;;
253;SDS011;590;48.772;8.846;2022-09-12T09:36:48;2.60;;;2.40;;
253;SDS011;590;48.772;8.846;2022-09-12T09:39:26;3.17;;;2.97;;
253;SDS011;590;48.772;8.846;2022-09-12T09:42:12;3.63;;;3.43;;
253;SDS011;590;48.772;8.846;2022-09-12T09:44:59;2.67;;;2.47;;
253;SDS011;590;48.772;8.846;2022-09-12T09:47:30;2.50;;;2.30;;
253;SDS011;590;48.772;8.846;2022-09-12T09:49:58;2.70;;;2.50;;
253;SDS011;590;48.772;8.846;2022-09-12T09:52:27;2.47;;;2.30;;
253;SDS011;590;48.772;8.846;2022-09-12T09:54:58;2.40;;;2.20;;
253;SDS011;590;48.772;8.846;2022-09-12T10:00:21;2.27;;;2.07;;
253;SDS011;590;48.772;8.846;2022-09-12T10:02:59;2.50;;;2.30;;
253;SDS011;590;48.772;8.846;2022-09-12T10:05:31;2.67;;;2.47;;
253;SDS011;590;48.772;8.846;2022-09-12T10:08:01;2.30;;;2.10;;
253;SDS011;590;48.772;8.846;2022-09-12T10:10:31;3.00;;;2.80;;
253;SDS011;590;48.772;8.846;2022-09-12T10:13:06;1.77;;;1.67;;
253;SDS011;590;48.772;8.846;2022-09-12T10:15:40;2.13;;;1.97;;
253;SDS011;590;48.772;8.846;2022-09-12T10:18:37;1.70;;;1.70;;
253;SDS011;590;48.772;8.846;2022-09-12T10:21:14;2.40;;;2.20;;
253;SDS011;590;48.772;8.846;2022-09-12T10:23:57;1.67;;;1.57;;
253;SDS011;590;48.772;8.846;2022-09-12T10:26:31;1.80;;;1.70;;
253;SDS011;590;48.772;8.846;2022-09-12T10:29:03;2.47;;;2.27;;
253;SDS011;590;48.772;8.846;2022-09-12T10:31:44;2.40;;;2.20;;
253;SDS011;590;48.772;8.846;2022-09-12T10:37:06;2.00;;;1.90;;
253;SDS011;590;48.772;8.846;2022-09-12T10:39:36;2.20;;;1.80;;
253;SDS011;590;48.772;8.846;2022-09-12T10:42:05;2.27;;;2.07;;
253;SDS011;590;48.772;8.846;2022-09-12T10:44:33;2.00;;;1.90;;
253;SDS011;590;48.772;8.846;2022-09-12T10:49:52;1.80;;;1.70;;
253;SDS011;590;48.772;8.846;2022-09-12T10:52:48;1.80;;;1.70;;
253;SDS011;590;48.772;8.846;2022-09-12T10:55:16;1.90;;;1.80;;
253;SDS011;590;48.772;8.846;2022-09-12T10:57:59;2.13;;;1.97;;
253;SDS011;590;48.772;8.846;2022-09-12T11:00:39;1.90;;;1.80;;
253;SDS011;590;48.772;8.846;2022-09-12T11:03:18;1.90;;;1.80;;
253;SDS011;590;48.772;8.846;2022-09-12T11:06:02;1.93;;;1.83;;
253;SDS011;590;48.772;8.846;2022-09-12T11:08:39;2.37;;;2.17;;
253;SDS011;590;48.772;8.846;2022-09-12T11:11:35;2.00;;;1.90;;
253;SDS011;590;48.772;8.846;2022-09-12T11:14:17;1.80;;;1.70;;
253;SDS011;590;48.772;8.846;2022-09-12T11:16:55;1.80;;;1.70;;
253;SDS011;590;48.772;8.846;2022-09-12T11:19:38;1.60;;;1.50;;
253;SDS011;590;48.772;8.846;2022-09-12T11:22:26;1.90;;;1.80;;
253;SDS011;590;48.772;8.846;2022-09-12T11:28:00;2.07;;;1.93;;
253;SDS011;590;48.772;8.846;2022-09-12T11:30:41;2.20;;;2.00;;
253;SDS011;590;48.772;8.846;2022-09-12T11:33:24;1.73;;;1.63;;
253;SDS011;590;48.772;8.846;2022-09-12T11:36:18;1.70;;;1.60;;
253;SDS011;590;48.772;8.846;2022-09-12T11:38:57;1.93;;;1.87;;
253;SDS011;590;48.772;8.846;2022-09-12T11:41:30;1.50;;;1.40;;
253;SDS011;590;48.772;8.846;2022-09-12T11:44:02;2.00;;;1.90;;
253;SDS011;590;48.772;8.846;2022-09-12T11:46:39;1.50;;;1.40;;
253;SDS011;590;48.772;8.846;2022-09-12T11:49:16;1.20;;;1.10;;
253;SDS011;590;48.772;8.846;2022-09-12T11:51:54;1.87;;;1.13;;
253;SDS011;590;48.772;8.846;2022-09-12T11:54:25;1.63;;;1.53;;
253;SDS011;590;48.772;8.846;2022-09-12T11:57:03;1.90;;;1.80;;
253;SDS011;590;48.772;8.846;2022-09-12T11:59:39;2.00;;;1.70;;
253;SDS011;590;48.772;8.846;2022-09-12T12:02:13;1.30;;;1.20;;
253;SDS011;590;48.772;8.846;2022-09-12T12:04:54;1.60;;;1.50;;
253;SDS011;590;48.772;8.846;2022-09-12T12:07:39;1.60;;;1.50;;
253;SDS011;590;48.772;8.846;2022-09-12T12:10:21;1.70;;;1.60;;
253;SDS011;590;48.772;8.846;2022-09-12T12:12:52;1.37;;;1.27;;
253;SDS011;590;48.772;8.846;2022-09-12T12:15:22;1.70;;;1.50;;
253;SDS011;590;48.772;8.846;2022-09-12T12:18:05;1.40;;;1.30;;
253;SDS011;590;48.772;8.846;2022-09-12T12:20:41;1.53;;;1.43;;
253;SDS011;590;48.772;8.846;2022-09-12T12:23:22;1.50;;;1.40;;
253;SDS011;590;48.772;8.846;2022-09-12T12:25:53;1.50;;;1.40;;
253;SDS011;590;48.772;8.846;2022-09-12T12:31:25;1.23;;;1.13;;
253;SDS011;590;48.772;8.846;2022-09-12T12:33:54;2.03;;;1.20;;
253;SDS011;590;48.772;8.846;2022-09-12T12:36:30;1.83;;;1.43;;
253;SDS011;590;48.772;8.846;2022-09-12T12:45:58;1.30;;;1.20;;
253;SDS011;590;48.772;8.846;2022-09-12T12:51:40;0.87;;;0.80;;
253;SDS011;590;48.772;8.846;2022-09-12T13:00:25;1.70;;;0.93;;
253;SDS011;590;48.772;8.846;2022-09-12T13:02:59;1.10;;;1.00;;
253;SDS011;590;48.772;8.846;2022-09-12T13:05:37;1.00;;;0.80;;
253;SDS011;590;48.772;8.846;2022-09-12T13:08:07;1.20;;;1.10;;
253;SDS011;590;48.772;8.846;2022-09-12T13:10:38;1.27;;;0.80;;
253;SDS011;590;48.772;8.846;2022-09-12T13:13:16;1.10;;;0.90;;
253;SDS011;590;48.772;8.846;2022-09-12T13:15:51;1.23;;;1.13;;
253;SDS011;590;48.772;8.846;2022-09-12T13:18:24;1.20;;;1.10;;
253;SDS011;590;48.772;8.846;2022-09-12T13:20:58;0.80;;;0.77;;
253;SDS011;590;48.772;8.846;2022-09-12T13:23:34;1.33;;;0.90;;
253;SDS011;590;48.772;8.846;2022-09-12T13:26:02;1.13;;;1.03;;
253;SDS011;590;48.772;8.846;2022-09-12T13:28:36;0.90;;;0.80;;
253;SDS011;590;48.772;8.846;2022-09-12T13:31:07;0.80;;;0.70;;
253;SDS011;590;48.772;8.846;2022-09-12T13:33:44;1.07;;;0.90;;
253;SDS011;590;48.772;8.846;2022-09-12T13:39:20;0.90;;;0.80;;
253;SDS011;590;48.772;8.846;2022-09-12T13:45:00;1.57;;;1.07;;
253;SDS011;590;48.772;8.846;2022-09-12T13:47:31;1.20;;;1.10;;
253;SDS011;590;48.772;8.846;2022-09-12T13:50:04;0.93;;;0.83;;
253;SDS011;590;48.772;8.846;2022-09-12T13:52:38;1.20;;;0.90;;
253;SDS011;590;48.772;8.846;2022-09-12T13:55:11;1.10;;;1.00;;
253;SDS011;590;48.772;8.846;2022-09-12T13:57:55;0.87;;;0.77;;
253;SDS011;590;48.772;8.846;2022-09-12T14:00:24;0.90;;;0.83;;
253;SDS011;590;48.772;8.846;2022-09-12T14:02:53;1.63;;;1.00;;
253;SDS011;590;48.772;8.846;2022-09-12T14:05:37;1.57;;;0.70;;
253;SDS011;590;48.772;8.846;2022-09-12T14:08:08;0.90;;;0.80;;
253;SDS011;590;48.772;8.846;2022-09-12T14:10:40;0.83;;;0.80;;
253;SDS011;590;48.772;8.846;2022-09-12T14:13:11;1.50;;;1.00;;
253;SDS011;590;48.772;8.846;2022-09-12T14:15:43;1.27;;;0.80;;
253;SDS011;590;48.772;8.846;2022-09-12T14:18:20;1.17;;;1.07;;
253;SDS011;590;48.772;8.846;2022-09-12T14:20:51;0.90;;;0.80;;
253;SDS011;590;48.772;8.846;2022-09-12T14:23:26;2.67;;;0.80;;
253;SDS011;590;48.772;8.846;2022-09-12T14:25:55;1.10;;;1.10;;
253;SDS011;590;48.772;8.846;2022-09-12T14:28:25;1.30;;;1.17;;
253;SDS011;590;48.772;8.846;2022-09-12T14:30:58;0.90;;;0.90;;
253;SDS011;590;48.772;8.846;2022-09-12T14:33:30;0.83;;;0.73;;
253;SDS011;590;48.772;8.846;2022-09-12T14:36:08;0.80;;;0.80;;
253;SDS011;590;48.772;8.846;2022-09-12T14:38:45;1.00;;;0.93;;
253;SDS011;590;48.772;8.846;2022-09-12T14:41:22;0.90;;;0.90;;
253;SDS011;590;48.772;8.846;2022-09-12T14:43:54;1.17;;;1.00;;
253;SDS011;590;48.772;8.846;2022-09-12T14:46:26;1.10;;;1.00;;
253;SDS011;590;48.772;8.846;2022-09-12T14:48:58;1.07;;;0.97;;
253;SDS011;590;48.772;8.846;2022-09-12T14:51:31;1.10;;;1.00;;
253;SDS011;590;48.772;8.846;2022-09-12T14:54:02;0.90;;;0.80;;
253;SDS011;590;48.772;8.846;2022-09-12T14:56:37;1.57;;;1.03;;
253;SDS011;590;48.772;8.846;2022-09-12T14:59:19;1.20;;;1.10;;
253;SDS011;590;48.772;8.846;2022-09-12T15:04:49;1.50;;;1.30;;
253;SDS011;590;48.772;8.846;2022-09-12T15:07:23;1.50;;;1.40;;
253;SDS011;590;48.772;8.846;2022-09-12T15:09:58;1.30;;;1.20;;
253;SDS011;590;48.772;8.846;2022-09-12T15:12:28;1.53;;;1.43;;
253;SDS011;590;48.772;8.846;2022-09-12T15:14:57;1.43;;;1.40;;
253;SDS011;590;48.772;8.846;2022-09-12T15:17:28;0.97;;;0.87;;
253;SDS011;590;48.772;8.846;2022-09-12T15:19:57;1.27;;;1.17;;
253;SDS011;590;48.772;8.846;2022-09-12T15:22:29;1.63;;;1.57;;
253;SDS011;590;48.772;8.846;2022-09-12T15:24:58;1.20;;;1.10;;
253;SDS011;590;48.772;8.846;2022-09-12T15:27:28;1.10;;;1.00;;
253;SDS011;590;48.772;8.846;2022-09-12T15:29:56;1.30;;;1.20;;
253;SDS011;590;48.772;8.846;2022-09-12T15:32:25;1.27;;;1.27;;
253;SDS011;590;48.772;8.846;2022-09-12T15:34:57;1.47;;;1.37;;
253;SDS011;590;48.772;8.846;2022-09-12T15:37:25;1.50;;;1.40;;
253;SDS011;590;48.772;8.846;2022-09-12T15:39:55;1.53;;;1.10;;
253;SDS011;590;48.772;8.846;2022-09-12T15:42:26;1.63;;;1.53;;
253;SDS011;590;48.772;8.846;2022-09-12T15:45:08;2.03;;;1.77;;
253;SDS011;590;48.772;8.846;2022-09-12T15:47:43;1.43;;;1.40;;
253;SDS011;590;48.772;8.846;2022-09-12T15:50:12;1.10;;;1.03;;
253;SDS011;590;48.772;8.846;2022-09-12T15:52:42;1.70;;;1.60;;
253;SDS011;590;48.772;8.846;2022-09-12T15:55:14;1.90;;;1.80;;
253;SDS011;590;48.772;8.846;2022-09-12T15:57:44;1.70;;;1.60;;
253;SDS011;590;48.772;8.846;2022-09-12T16:00:13;1.27;;;1.20;;
253;SDS011;590;48.772;8.846;2022-09-12T16:02:43;1.30;;;1.20;;
253;SDS011;590;48.772;8.846;2022-09-12T16:05:12;1.43;;;1.33;;
253;SDS011;590;48.772;8.846;2022-09-12T16:07:42;2.73;;;1.50;;
253;SDS011;590;48.772;8.846;2022-09-12T16:10:15;1.70;;;1.60;;
253;SDS011;590;48.772;8.846;2022-09-12T16:12:45;1.60;;;1.50;;
253;SDS011;590;48.772;8.846;2022-09-12T16:15:14;1.30;;;1.20;;
253;SDS011;590;48.772;8.846;2022-09-12T16:17:44;2.80;;;1.50;;
253;SDS011;590;48.772;8.846;2022-09-12T16:20:12;1.50;;;1.40;;
253;SDS011;590;48.772;8.846;2022-09-12T16:22:40;1.50;;;1.20;;
253;SDS011;590;48.772;8.846;2022-09-12T16:25:08;2.33;;;1.37;;
253;SDS011;590;48.772;8.846;2022-09-12T16:27:38;1.27;;;1.20;;
253;SDS011;590;48.772;8.846;2022-09-12T16:30:07;1.50;;;1.40;;
253;SDS011;590;48.772;8.846;2022-09-12T16:32:36;1.37;;;1.27;;
253;SDS011;590;48.772;8.846;2022-09-12T16:35:04;1.63;;;1.53;;
253;SDS011;590;48.772;8.846;2022-09-12T16:37:33;1.70;;;1.60;;
253;SDS011;590;48.772;8.846;2022-09-12T16:40:01;1.70;;;1.60;;
253;SDS011;590;48.772;8.846;2022-09-12T16:42:30;2.17;;;1.47;;
253;SDS011;590;48.772;8.846;2022-09-12T16:45:10;1.77;;;1.70;;
253;SDS011;590;48.772;8.846;2022-09-12T16:47:39;1.90;;;1.57;;
253;SDS011;590;48.772;8.846;2022-09-12T16:50:07;1.63;;;1.50;;
253;SDS011;590;48.772;8.846;2022-09-12T16:52:35;2.03;;;1.57;;
253;SDS011;590;48.772;8.846;2022-09-12T16:55:03;1.70;;;1.60;;
253;SDS011;590;48.772;8.846;2022-09-12T16:57:32;1.33;;;1.23;;
253;SDS011;590;48.772;8.846;2022-09-12T17:00:00;1.63;;;1.53;;
253;SDS011;590;48.772;8.846;2022-09-12T17:02:30;1.80;;;1.70;;